createdAt,value
2019-03-24T00:00:24.668Z,99.90
2019-03-24T00:02:53.123Z,99.90
2019-03-24T00:05:21.575Z,99.90
2019-03-24T00:07:50.035Z,99.90
2019-03-24T00:10:18.476Z,99.90
2019-03-24T00:12:46.937Z,99.90
2019-03-24T00:15:25.407Z,99.90
2019-03-24T00:17:45.627Z,99.90
2019-03-24T00:20:14.146Z,99.90
2019-03-24T00:22:42.681Z,99.90
2019-03-24T00:25:11.266Z,99.90
2019-03-24T00:27:39.738Z,99.90
2019-03-24T00:30:08.799Z,99.90
2019-03-24T00:32:37.255Z,99.90
2019-03-24T00:35:06.962Z,99.90
2019-03-24T00:37:35.463Z,99.90
2019-03-24T00:40:05.734Z,99.90
2019-03-24T00:42:34.201Z,99.90
2019-03-24T00:45:02.630Z,99.90
2019-03-24T00:47:31.083Z,99.90
2019-03-24T00:49:59.536Z,99.90
2019-03-24T00:52:27.971Z,99.90
2019-03-24T00:54:56.432Z,99.90
2019-03-24T00:57:24.880Z,99.90
2019-03-24T00:59:53.336Z,99.90
2019-03-24T01:02:22.050Z,99.90
2019-03-24T01:04:50.514Z,99.90
2019-03-24T01:07:18.950Z,99.90
2019-03-24T01:09:47.415Z,99.90
2019-03-24T01:12:15.874Z,99.90
2019-03-24T01:14:44.377Z,99.90
2019-03-24T01:17:12.806Z,99.90
2019-03-24T01:19:41.285Z,99.90
2019-03-24T01:22:09.791Z,99.90
2019-03-24T01:24:38.239Z,99.90
2019-03-24T01:27:06.662Z,99.90
2019-03-24T01:29:35.126Z,99.90
2019-03-24T01:32:03.554Z,99.90
2019-03-24T01:34:32.006Z,99.90
2019-03-24T01:37:00.536Z,99.90
2019-03-24T01:39:28.995Z,99.90
2019-03-24T01:41:57.442Z,99.90
2019-03-24T01:44:25.892Z,99.90
2019-03-24T01:46:54.331Z,99.90
2019-03-24T01:49:22.787Z,99.90
2019-03-24T01:51:51.226Z,99.90
2019-03-24T01:54:19.707Z,99.90
2019-03-24T01:56:48.191Z,99.90
2019-03-24T01:59:16.641Z,99.90
2019-03-24T02:01:45.076Z,99.90
2019-03-24T02:04:13.540Z,99.90
2019-03-24T02:06:41.975Z,99.90
2019-03-24T02:09:10.502Z,99.90
2019-03-24T02:11:38.950Z,99.90
2019-03-24T02:14:07.387Z,99.90
2019-03-24T02:16:35.839Z,99.90
2019-03-24T02:19:04.265Z,99.90
2019-03-24T02:21:32.718Z,99.90
2019-03-24T02:24:01.151Z,99.90
2019-03-24T02:26:29.608Z,99.90
2019-03-24T02:28:58.041Z,99.90
2019-03-24T02:31:26.499Z,99.90
2019-03-24T02:33:54.955Z,99.90
2019-03-24T02:36:23.481Z,99.90
2019-03-24T02:38:51.990Z,99.90
2019-03-24T02:41:20.536Z,99.90
2019-03-24T02:43:49.037Z,99.90
2019-03-24T02:46:24.172Z,99.90
2019-03-24T02:48:47.659Z,99.90
2019-03-24T02:51:16.115Z,99.90
2019-03-24T02:53:44.551Z,99.90
2019-03-24T02:56:13.031Z,99.90
2019-03-24T02:58:41.536Z,99.90
2019-03-24T03:01:09.997Z,99.90
2019-03-24T03:03:38.498Z,99.90
2019-03-24T03:06:06.968Z,99.90
2019-03-24T03:08:35.401Z,99.90
2019-03-24T03:11:03.882Z,99.90
2019-03-24T03:13:32.371Z,99.90
2019-03-24T03:16:00.829Z,99.90
2019-03-24T03:18:29.262Z,99.90
2019-03-24T03:20:57.718Z,99.90
2019-03-24T03:23:26.145Z,99.90
2019-03-24T03:25:54.609Z,99.90
2019-03-24T03:28:23.128Z,99.90
2019-03-24T03:30:51.684Z,99.90
2019-03-24T03:33:20.199Z,99.90
2019-03-24T03:35:48.719Z,99.90
2019-03-24T03:38:17.239Z,99.90
2019-03-24T03:40:45.735Z,99.90
2019-03-24T03:43:14.200Z,99.90
2019-03-24T03:45:42.647Z,99.90
2019-03-24T03:48:11.079Z,99.90
2019-03-24T03:50:39.536Z,99.90
2019-03-24T03:53:08.040Z,99.90
2019-03-24T03:55:36.553Z,99.90
2019-03-24T03:58:05.098Z,99.90
2019-03-24T04:00:37.075Z,99.90
2019-03-24T04:03:06.381Z,99.90
2019-03-24T04:05:35.054Z,99.90
2019-03-24T04:08:03.558Z,99.90
2019-03-24T04:10:32.002Z,99.90
2019-03-24T04:13:00.543Z,99.90
2019-03-24T04:15:29.038Z,99.90
2019-03-24T04:17:57.487Z,99.90
2019-03-24T04:20:25.934Z,99.90
2019-03-24T04:22:54.380Z,99.90
2019-03-24T04:25:22.811Z,99.90
2019-03-24T04:27:51.278Z,99.90
2019-03-24T04:30:19.781Z,99.90
2019-03-24T04:32:48.234Z,99.90
2019-03-24T04:35:16.677Z,99.90
2019-03-24T04:37:45.132Z,99.90
2019-03-24T04:40:13.633Z,99.90
2019-03-24T04:42:42.093Z,99.90
2019-03-24T04:45:11.170Z,99.90
2019-03-24T04:47:39.630Z,99.90
2019-03-24T04:50:08.601Z,99.90
2019-03-24T04:52:37.061Z,99.90
2019-03-24T04:55:06.919Z,99.90
2019-03-24T04:57:35.411Z,99.90
2019-03-24T05:00:06.291Z,99.90
2019-03-24T05:02:34.790Z,99.90
2019-03-24T05:05:03.677Z,99.90
2019-03-24T05:07:32.218Z,99.90
2019-03-24T05:10:00.713Z,99.90
2019-03-24T05:12:29.166Z,99.90
2019-03-24T05:14:57.604Z,99.90
2019-03-24T05:17:27.215Z,99.90
2019-03-24T05:19:55.939Z,99.90
2019-03-24T05:22:24.413Z,99.90
2019-03-24T05:24:52.857Z,99.90
2019-03-24T05:27:21.302Z,99.90
2019-03-24T05:29:49.725Z,99.90
2019-03-24T05:32:18.194Z,99.90
2019-03-24T05:34:46.622Z,99.90
2019-03-24T05:37:15.085Z,99.90
2019-03-24T05:39:43.532Z,99.90
2019-03-24T05:42:11.979Z,99.90
2019-03-24T05:44:40.416Z,99.90
2019-03-24T05:47:08.857Z,99.90
2019-03-24T05:49:37.299Z,99.90
2019-03-24T05:52:05.734Z,99.90
2019-03-24T05:54:34.213Z,99.90
2019-03-24T05:57:02.634Z,99.90
2019-03-24T05:59:31.077Z,99.90
2019-03-24T06:01:59.513Z,99.90
2019-03-24T06:04:27.974Z,99.90
2019-03-24T06:06:56.411Z,99.90
2019-03-24T06:09:24.866Z,99.90
2019-03-24T06:11:53.356Z,99.90
2019-03-24T06:14:21.822Z,99.90
2019-03-24T06:16:50.255Z,99.90
2019-03-24T06:19:18.707Z,99.90
2019-03-24T06:21:47.131Z,99.90
2019-03-24T06:24:15.577Z,99.90
2019-03-24T06:26:44.019Z,99.90
2019-03-24T06:29:12.477Z,99.90
2019-03-24T06:31:40.906Z,99.90
2019-03-24T06:34:09.367Z,99.90
2019-03-24T06:36:37.807Z,99.90
2019-03-24T06:39:08.016Z,99.90
2019-03-24T06:41:36.457Z,99.90
2019-03-24T06:44:04.926Z,99.90
2019-03-24T06:46:33.365Z,99.90
2019-03-24T06:49:01.813Z,99.90
2019-03-24T06:51:30.290Z,99.90
2019-03-24T06:53:58.800Z,99.90
2019-03-24T06:56:27.243Z,99.90
2019-03-24T06:58:55.688Z,99.90
2019-03-24T07:01:24.118Z,99.90
2019-03-24T07:03:52.571Z,99.90
2019-03-24T07:06:21.015Z,99.90
2019-03-24T07:08:49.482Z,99.90
2019-03-24T07:11:17.920Z,99.90
2019-03-24T07:13:46.370Z,99.90
2019-03-24T07:16:14.798Z,99.90
2019-03-24T07:18:43.336Z,99.90
2019-03-24T07:21:11.778Z,99.90
2019-03-24T07:23:40.226Z,99.90
2019-03-24T07:26:08.699Z,99.90
2019-03-24T07:28:37.129Z,99.90
2019-03-24T07:31:05.590Z,99.90
2019-03-24T07:33:34.035Z,99.90
2019-03-24T07:36:02.498Z,99.90
2019-03-24T07:38:30.970Z,99.90
2019-03-24T07:40:59.470Z,99.90
2019-03-24T07:43:27.908Z,99.90
2019-03-24T07:45:56.374Z,99.90
2019-03-24T07:48:24.809Z,99.90
2019-03-24T07:50:53.270Z,99.90
2019-03-24T07:53:21.694Z,99.90
2019-03-24T07:55:50.149Z,99.90
2019-03-24T07:58:18.595Z,99.90
2019-03-24T08:00:47.046Z,99.90
2019-03-24T08:03:15.556Z,99.90
2019-03-24T08:05:44.052Z,99.90
2019-03-24T08:08:12.536Z,99.90
2019-03-24T08:10:41.020Z,99.90
2019-03-24T08:13:09.506Z,99.90
2019-03-24T08:15:38.034Z,99.90
2019-03-24T08:18:06.467Z,99.90
2019-03-24T08:20:34.937Z,99.90
2019-03-24T08:23:03.399Z,99.90
2019-03-24T08:25:31.906Z,99.90
2019-03-24T08:28:00.425Z,99.90
2019-03-24T08:30:35.874Z,99.90
2019-03-24T08:33:04.582Z,99.90
2019-03-24T08:35:33.099Z,99.90
2019-03-24T08:38:01.557Z,99.90
2019-03-24T08:40:30.006Z,99.90
2019-03-24T08:42:58.510Z,99.90
2019-03-24T08:45:28.334Z,99.90
2019-03-24T08:47:58.490Z,99.90
2019-03-24T08:50:27.012Z,99.90
2019-03-24T08:52:55.529Z,99.90
2019-03-24T08:55:24.044Z,99.90
2019-03-24T08:57:52.547Z,99.90
2019-03-24T09:00:30.151Z,99.90
2019-03-24T09:02:51.159Z,99.90
2019-03-24T09:05:19.604Z,99.90
2019-03-24T09:07:48.047Z,99.90
2019-03-24T09:10:16.566Z,99.90
2019-03-24T09:12:44.999Z,99.90
2019-03-24T09:15:13.614Z,99.90
2019-03-24T09:17:42.104Z,99.90
2019-03-24T09:20:11.003Z,99.90
2019-03-24T09:22:39.506Z,99.90
2019-03-24T09:25:08.283Z,99.90
2019-03-24T09:27:36.755Z,99.90
2019-03-24T09:30:08.095Z,99.90
2019-03-24T09:32:36.544Z,99.90
2019-03-24T09:35:06.170Z,99.90
2019-03-24T09:37:34.625Z,99.90
2019-03-24T09:40:03.314Z,99.90
2019-03-24T09:42:31.819Z,99.90
2019-03-24T09:45:00.357Z,99.90
2019-03-24T09:47:28.858Z,99.90
2019-03-24T09:49:57.298Z,99.90
2019-03-24T09:52:25.756Z,99.90
2019-03-24T09:54:54.218Z,99.90
2019-03-24T09:57:22.670Z,99.90
2019-03-24T09:59:51.118Z,99.90
2019-03-24T10:02:19.573Z,99.90
2019-03-24T10:04:48.009Z,99.90
2019-03-24T10:07:16.486Z,99.90
2019-03-24T10:09:44.998Z,99.90
2019-03-24T10:12:13.458Z,99.90
2019-03-24T10:14:41.902Z,99.90
2019-03-24T10:17:10.377Z,99.90
2019-03-24T10:19:38.802Z,99.90
2019-03-24T10:22:07.260Z,99.90
2019-03-24T10:24:35.707Z,99.90
2019-03-24T10:27:04.169Z,99.20
2019-03-24T10:29:32.673Z,98.70
2019-03-24T10:32:01.130Z,98.70
2019-03-24T10:34:29.598Z,99.50
2019-03-24T10:36:58.068Z,98.40
2019-03-24T10:39:26.574Z,98.30
2019-03-24T10:41:55.115Z,97.90
2019-03-24T10:44:23.555Z,97.60
2019-03-24T10:46:52.037Z,97.20
2019-03-24T10:49:24.668Z,97.50
2019-03-24T10:51:50.652Z,96.30
2019-03-24T10:54:19.104Z,94.60
2019-03-24T10:56:47.554Z,95.00
2019-03-24T10:59:16.034Z,95.70
2019-03-24T11:01:44.530Z,95.20
2019-03-24T11:04:12.996Z,96.00
2019-03-24T11:06:41.426Z,94.70
2019-03-24T11:09:09.965Z,94.70
2019-03-24T11:11:38.410Z,94.30
2019-03-24T11:14:06.928Z,94.40
2019-03-24T11:16:35.359Z,94.10
2019-03-24T11:19:03.833Z,93.70
2019-03-24T11:21:32.350Z,93.20
2019-03-24T11:24:00.800Z,91.50
2019-03-24T11:26:29.250Z,91.40
2019-03-24T11:28:57.699Z,90.40
2019-03-24T11:31:26.148Z,88.20
2019-03-24T11:33:54.680Z,79.00
2019-03-24T11:36:23.125Z,71.10
2019-03-24T11:38:51.648Z,72.00
2019-03-24T11:41:20.114Z,63.20
2019-03-24T11:43:48.633Z,62.60
2019-03-24T11:46:17.089Z,62.70
2019-03-24T11:48:45.569Z,65.00
2019-03-24T11:51:14.008Z,65.80
2019-03-24T11:53:42.572Z,71.60
2019-03-24T11:56:11.074Z,74.00
2019-03-24T11:58:39.618Z,75.50
2019-03-24T12:01:08.140Z,76.10
2019-03-24T12:03:36.599Z,78.90
2019-03-24T12:06:13.984Z,83.90
2019-03-24T12:08:35.293Z,81.60
2019-03-24T12:11:03.751Z,76.50
2019-03-24T12:13:32.198Z,73.60
2019-03-24T12:16:00.681Z,68.40
2019-03-24T12:18:29.197Z,73.90
2019-03-24T12:20:57.655Z,78.20
2019-03-24T12:23:26.135Z,73.10
2019-03-24T12:25:54.648Z,75.80
2019-03-24T12:28:23.097Z,75.50
2019-03-24T12:30:51.607Z,78.00
2019-03-24T12:33:20.064Z,76.90
2019-03-24T12:35:48.588Z,76.60
2019-03-24T12:38:17.014Z,71.90
2019-03-24T12:40:45.482Z,68.30
2019-03-24T12:43:19.373Z,67.10
2019-03-24T12:45:44.122Z,67.70
2019-03-24T12:48:12.588Z,68.80
2019-03-24T12:50:41.094Z,66.60
2019-03-24T12:53:09.536Z,66.50
2019-03-24T12:55:38.010Z,70.10
2019-03-24T12:58:06.431Z,67.00
2019-03-24T13:00:36.839Z,71.10
2019-03-24T13:03:05.454Z,71.90
2019-03-24T13:05:33.986Z,72.10
2019-03-24T13:08:12.804Z,73.70
2019-03-24T13:10:42.201Z,68.90
2019-03-24T13:13:11.595Z,67.30
2019-03-24T13:15:40.571Z,63.30
2019-03-24T13:18:09.018Z,60.90
2019-03-24T13:20:38.733Z,57.20
2019-03-24T13:23:07.498Z,63.50
2019-03-24T13:25:36.445Z,59.20
2019-03-24T13:28:04.961Z,63.70
2019-03-24T13:30:33.454Z,61.80
2019-03-24T13:33:01.901Z,59.70
2019-03-24T13:35:30.382Z,58.20
2019-03-24T13:37:58.805Z,59.70
2019-03-24T13:40:27.270Z,58.30
2019-03-24T13:42:55.710Z,56.30
2019-03-24T13:45:24.184Z,57.30
2019-03-24T13:47:52.622Z,56.70
2019-03-24T13:50:31.024Z,55.90
2019-03-24T13:52:51.251Z,54.20
2019-03-24T13:55:19.738Z,53.80
2019-03-24T13:57:48.180Z,54.20
2019-03-24T14:00:18.512Z,54.00
2019-03-24T14:02:46.946Z,53.10
2019-03-24T14:05:15.393Z,51.80
2019-03-24T14:07:43.839Z,52.00
2019-03-24T14:10:12.363Z,52.00
2019-03-24T14:12:40.831Z,51.70
2019-03-24T14:15:09.781Z,50.60
2019-03-24T14:17:38.206Z,50.70
2019-03-24T14:20:07.610Z,51.50
2019-03-24T14:22:36.041Z,52.30
2019-03-24T14:25:06.739Z,53.80
2019-03-24T14:27:35.186Z,54.20
2019-03-24T14:30:05.354Z,57.60
2019-03-24T14:32:33.821Z,58.70
2019-03-24T14:35:02.262Z,59.00
2019-03-24T14:37:30.716Z,60.00
2019-03-24T14:39:59.158Z,59.80
2019-03-24T14:42:27.614Z,60.90
2019-03-24T14:44:56.044Z,62.00
2019-03-24T14:47:24.496Z,64.10
2019-03-24T14:49:52.956Z,67.40
2019-03-24T14:52:21.414Z,69.90
2019-03-24T14:54:49.848Z,75.30
2019-03-24T14:57:18.311Z,80.60
2019-03-24T14:59:46.741Z,84.90
2019-03-24T15:02:15.360Z,88.60
2019-03-24T15:04:43.819Z,90.20
2019-03-24T15:07:12.285Z,90.80
2019-03-24T15:09:40.775Z,92.20
2019-03-24T15:12:09.319Z,92.20
2019-03-24T15:14:37.762Z,92.20
2019-03-24T15:17:06.221Z,92.50
2019-03-24T15:19:34.671Z,93.00
2019-03-24T15:22:03.268Z,93.10
2019-03-24T15:24:32.097Z,93.50
2019-03-24T15:27:00.625Z,94.10
2019-03-24T15:29:29.054Z,94.90
2019-03-24T15:31:57.510Z,95.10
2019-03-24T15:34:25.991Z,95.40
2019-03-24T15:36:54.949Z,96.30
2019-03-24T15:39:23.477Z,96.10
2019-03-24T15:41:52.006Z,96.10
2019-03-24T15:44:20.516Z,95.90
2019-03-24T15:46:48.971Z,95.70
2019-03-24T15:49:17.423Z,95.60
2019-03-24T15:51:45.902Z,95.30
2019-03-24T15:54:14.368Z,95.40
2019-03-24T15:56:43.314Z,95.10
2019-03-24T15:59:11.765Z,95.80
2019-03-24T16:01:40.214Z,95.00
2019-03-24T16:04:08.703Z,95.20
2019-03-24T16:06:37.178Z,94.90
2019-03-24T16:09:07.642Z,95.00
2019-03-24T16:11:36.236Z,93.60
2019-03-24T16:14:04.703Z,93.50
2019-03-24T16:16:33.137Z,93.50
2019-03-24T16:19:01.665Z,93.80
2019-03-24T16:21:31.279Z,94.20
2019-03-24T16:23:59.962Z,94.00
2019-03-24T16:26:28.689Z,94.10
2019-03-24T16:28:57.762Z,92.50
2019-03-24T16:31:26.289Z,91.20
2019-03-24T16:33:54.755Z,91.00
2019-03-24T16:36:23.251Z,91.00
2019-03-24T16:39:02.978Z,91.50
2019-03-24T16:41:22.210Z,93.00
2019-03-24T16:43:50.800Z,93.00
2019-03-24T16:46:19.830Z,92.70
2019-03-24T16:48:48.361Z,93.50
2019-03-24T16:51:16.790Z,93.20
2019-03-24T16:53:45.322Z,93.40
2019-03-24T16:56:13.789Z,93.00
2019-03-24T16:58:42.305Z,93.20
2019-03-24T17:01:10.726Z,93.60
2019-03-24T17:03:39.196Z,94.10
2019-03-24T17:06:10.105Z,94.00
2019-03-24T17:08:37.948Z,94.50
2019-03-24T17:11:07.203Z,94.70
2019-03-24T17:13:35.662Z,95.50
2019-03-24T17:16:04.109Z,96.30
2019-03-24T17:18:32.572Z,96.80
2019-03-24T17:21:00.998Z,97.60
2019-03-24T17:23:29.441Z,98.00
2019-03-24T17:25:57.877Z,98.30
2019-03-24T17:28:26.339Z,98.00
2019-03-24T17:30:54.849Z,98.40
2019-03-24T17:33:23.297Z,98.90
2019-03-24T17:35:51.799Z,99.30
2019-03-24T17:38:20.279Z,99.20
2019-03-24T17:40:48.725Z,99.50
2019-03-24T17:43:17.184Z,99.90
2019-03-24T17:45:45.615Z,99.90
2019-03-24T17:48:14.082Z,99.90
2019-03-24T17:50:42.517Z,99.90
2019-03-24T17:53:10.992Z,99.90
2019-03-24T17:55:39.440Z,99.90
2019-03-24T17:58:07.871Z,99.90
2019-03-24T18:00:42.417Z,99.90
2019-03-24T18:03:11.045Z,99.90
2019-03-24T18:05:39.820Z,99.90
2019-03-24T18:08:08.372Z,99.90
2019-03-24T18:10:36.826Z,99.90
2019-03-24T18:13:05.360Z,99.90
2019-03-24T18:15:33.836Z,99.90
2019-03-24T18:18:02.280Z,99.90
2019-03-24T18:20:34.989Z,99.90
2019-03-24T18:23:03.648Z,99.90
2019-03-24T18:25:32.124Z,99.90
2019-03-24T18:28:00.585Z,99.90
2019-03-24T18:30:29.119Z,99.90
2019-03-24T18:32:57.561Z,99.90
2019-03-24T18:35:26.046Z,99.90
2019-03-24T18:37:54.514Z,99.90
2019-03-24T18:40:23.017Z,99.90
2019-03-24T18:42:51.459Z,99.90
2019-03-24T18:45:20.653Z,99.90
2019-03-24T18:47:49.096Z,99.90
2019-03-24T18:50:17.627Z,99.90
2019-03-24T18:52:46.068Z,99.90
2019-03-24T18:55:14.781Z,99.90
2019-03-24T18:57:43.325Z,99.90
2019-03-24T19:00:13.602Z,99.90
2019-03-24T19:02:42.025Z,99.90
2019-03-24T19:05:10.728Z,99.90
2019-03-24T19:07:39.180Z,99.90
2019-03-24T19:10:08.577Z,99.90
2019-03-24T19:12:37.373Z,99.90
2019-03-24T19:15:07.271Z,99.90
2019-03-24T19:17:36.412Z,99.90
2019-03-24T19:20:06.587Z,99.90
2019-03-24T19:22:35.046Z,99.90
2019-03-24T19:25:07.353Z,99.90
2019-03-24T19:27:35.774Z,99.90
2019-03-24T19:30:07.182Z,99.90
2019-03-24T19:32:35.717Z,99.90
2019-03-24T19:35:06.618Z,99.90
2019-03-24T19:37:35.708Z,99.90
2019-03-24T19:40:07.362Z,99.90
2019-03-24T19:42:35.784Z,99.90
2019-03-24T19:45:04.984Z,99.90
2019-03-24T19:47:33.423Z,99.90
2019-03-24T19:50:01.886Z,99.90
2019-03-24T19:52:30.382Z,99.90
2019-03-24T19:54:58.847Z,99.90
2019-03-24T19:57:27.279Z,99.90
2019-03-24T19:59:55.731Z,99.90
2019-03-24T20:02:24.162Z,99.90
2019-03-24T20:04:52.602Z,99.90
2019-03-24T20:07:21.050Z,99.90
2019-03-24T20:09:49.501Z,99.90
2019-03-24T20:12:17.976Z,99.90
2019-03-24T20:14:46.425Z,99.90
2019-03-24T20:17:14.873Z,99.90
2019-03-24T20:19:43.324Z,99.90
2019-03-24T20:22:11.774Z,99.90
2019-03-24T20:24:40.215Z,99.90
2019-03-24T20:27:08.666Z,99.90
2019-03-24T20:29:37.107Z,99.90
2019-03-24T20:32:05.558Z,99.90
2019-03-24T20:34:34.005Z,99.90
2019-03-24T20:37:02.463Z,99.90
2019-03-24T20:39:30.897Z,99.90
2019-03-24T20:41:59.355Z,99.90
2019-03-24T20:44:27.817Z,99.90
2019-03-24T20:46:56.276Z,99.90
2019-03-24T20:49:24.734Z,99.90
2019-03-24T20:51:53.183Z,99.90
2019-03-24T20:54:21.621Z,99.90
2019-03-24T20:56:50.091Z,99.90
2019-03-24T20:59:18.526Z,99.90
2019-03-24T21:01:46.998Z,99.90
2019-03-24T21:04:15.430Z,99.90
2019-03-24T21:06:43.909Z,99.90
2019-03-24T21:09:12.346Z,99.90
2019-03-24T21:11:40.798Z,99.90
2019-03-24T21:14:09.378Z,99.90
2019-03-24T21:16:37.838Z,99.90
2019-03-24T21:19:06.266Z,99.90
2019-03-24T21:21:36.203Z,99.90
2019-03-24T21:24:04.831Z,99.90
2019-03-24T21:26:33.302Z,99.90
2019-03-24T21:29:01.786Z,99.90
2019-03-24T21:31:30.301Z,99.90
2019-03-24T21:33:58.742Z,99.90
2019-03-24T21:36:27.214Z,99.90
2019-03-24T21:38:55.714Z,99.90
2019-03-24T21:41:24.165Z,99.90
2019-03-24T21:43:52.604Z,99.90
2019-03-24T21:46:21.070Z,99.90
2019-03-24T21:48:49.520Z,99.90
2019-03-24T21:51:17.949Z,99.90
2019-03-24T21:53:46.409Z,99.90
2019-03-24T21:56:14.863Z,99.90
2019-03-24T21:58:43.315Z,99.90
2019-03-24T22:01:11.764Z,99.90
2019-03-24T22:03:40.235Z,99.90
2019-03-24T22:06:08.749Z,99.90
2019-03-24T22:08:37.219Z,99.90
2019-03-24T22:11:05.648Z,99.90
2019-03-24T22:13:34.093Z,99.90
2019-03-24T22:16:02.530Z,99.90
2019-03-24T22:18:30.973Z,99.90
2019-03-24T22:20:59.422Z,99.90
2019-03-24T22:23:27.885Z,99.90
2019-03-24T22:25:56.330Z,99.90
2019-03-24T22:28:24.861Z,99.90
2019-03-24T22:30:53.294Z,99.90
2019-03-24T22:33:21.742Z,99.90
2019-03-24T22:35:50.194Z,99.90
2019-03-24T22:38:18.655Z,99.90
2019-03-24T22:40:47.082Z,99.90
2019-03-24T22:43:15.567Z,99.90
2019-03-24T22:45:43.997Z,99.90
2019-03-24T22:48:12.462Z,99.90
2019-03-24T22:50:40.903Z,99.90
2019-03-24T22:53:09.343Z,99.90
2019-03-24T22:55:37.783Z,99.90
2019-03-24T22:58:06.230Z,99.90
2019-03-24T23:00:48.339Z,99.90
2019-03-24T23:03:16.790Z,99.90
2019-03-24T23:05:45.224Z,99.90
2019-03-24T23:08:13.679Z,99.90
2019-03-24T23:10:42.114Z,99.90
2019-03-24T23:13:10.569Z,99.90
2019-03-24T23:15:39.005Z,99.90
2019-03-24T23:18:07.462Z,99.90
2019-03-24T23:20:35.891Z,99.90
2019-03-24T23:23:04.340Z,99.90
2019-03-24T23:25:32.782Z,99.90
2019-03-24T23:28:01.244Z,99.90
2019-03-24T23:30:29.681Z,99.90
2019-03-24T23:32:58.134Z,99.90
2019-03-24T23:35:26.578Z,99.90
2019-03-24T23:37:55.052Z,99.90
2019-03-24T23:40:23.486Z,99.90
2019-03-24T23:42:51.931Z,99.90
2019-03-24T23:45:20.385Z,99.90
2019-03-24T23:47:48.827Z,99.90
2019-03-24T23:50:17.282Z,99.90
2019-03-24T23:52:45.712Z,99.90
2019-03-24T23:55:14.178Z,99.90
2019-03-24T23:57:42.615Z,99.90
